sensor_id;sensor_type;location;lat;lon;timestamp;P1;durP1;ratioP1;P2;durP2;ratioP2
5696;SDS011;2873;50.966;7.210;2022-12-08T00:02:02;26.90;;;15.90;;
5696;SDS011;2873;50.966;7.210;2022-12-08T00:04:27;30.90;;;16.23;;
5696;SDS011;2873;50.966;7.210;2022-12-08T00:06:53;27.63;;;16.47;;
5696;SDS011;2873;50.966;7.210;2022-12-08T00:09:38;29.73;;;16.67;;
5696;SDS011;2873;50.966;7.210;2022-12-08T00:14:36;28.67;;;15.90;;
5696;SDS011;2873;50.966;7.210;2022-12-08T00:17:07;30.42;;;15.70;;
5696;SDS011;2873;50.966;7.210;2022-12-08T00:19:34;29.35;;;16.08;;
5696;SDS011;2873;50.966;7.210;2022-12-08T00:22:00;30.85;;;15.90;;
5696;SDS011;2873;50.966;7.210;2022-12-08T00:24:30;27.27;;;15.10;;
5696;SDS011;2873;50.966;7.210;2022-12-08T00:26:57;27.67;;;16.27;;
5696;SDS011;2873;50.966;7.210;2022-12-08T00:29:23;26.60;;;15.83;;
5696;SDS011;2873;50.966;7.210;2022-12-08T00:31:49;26.00;;;15.77;;
5696;SDS011;2873;50.966;7.210;2022-12-08T00:34:14;26.70;;;14.47;;
5696;SDS011;2873;50.966;7.210;2022-12-08T00:36:40;30.98;;;15.73;;
5696;SDS011;2873;50.966;7.210;2022-12-08T00:39:06;26.10;;;14.73;;
5696;SDS011;2873;50.966;7.210;2022-12-08T00:41:32;24.25;;;15.10;;
5696;SDS011;2873;50.966;7.210;2022-12-08T00:44:16;29.75;;;14.85;;
5696;SDS011;2873;50.966;7.210;2022-12-08T00:46:43;25.70;;;15.68;;
5696;SDS011;2873;50.966;7.210;2022-12-08T00:49:09;28.40;;;15.40;;
5696;SDS011;2873;50.966;7.210;2022-12-08T00:51:35;27.17;;;15.52;;
5696;SDS011;2873;50.966;7.210;2022-12-08T00:54:02;24.73;;;15.65;;
5696;SDS011;2873;50.966;7.210;2022-12-08T00:56:29;22.27;;;14.98;;
5696;SDS011;2873;50.966;7.210;2022-12-08T00:58:54;29.70;;;15.45;;
5696;SDS011;2873;50.966;7.210;2022-12-08T01:01:20;29.55;;;16.00;;
5696;SDS011;2873;50.966;7.210;2022-12-08T01:03:46;29.10;;;15.70;;
5696;SDS011;2873;50.966;7.210;2022-12-08T01:06:12;26.73;;;16.10;;
5696;SDS011;2873;50.966;7.210;2022-12-08T01:08:38;32.60;;;15.98;;
5696;SDS011;2873;50.966;7.210;2022-12-08T01:11:08;26.10;;;15.07;;
5696;SDS011;2873;50.966;7.210;2022-12-08T01:13:36;25.67;;;15.48;;
5696;SDS011;2873;50.966;7.210;2022-12-08T01:16:01;29.38;;;15.93;;
5696;SDS011;2873;50.966;7.210;2022-12-08T01:18:27;28.53;;;15.37;;
5696;SDS011;2873;50.966;7.210;2022-12-08T01:20:53;28.50;;;15.40;;
5696;SDS011;2873;50.966;7.210;2022-12-08T01:23:19;29.70;;;15.80;;
5696;SDS011;2873;50.966;7.210;2022-12-08T01:25:45;33.60;;;15.93;;
5696;SDS011;2873;50.966;7.210;2022-12-08T01:28:10;29.25;;;15.10;;
5696;SDS011;2873;50.966;7.210;2022-12-08T01:30:39;28.47;;;14.83;;
5696;SDS011;2873;50.966;7.210;2022-12-08T01:33:05;29.23;;;15.20;;
5696;SDS011;2873;50.966;7.210;2022-12-08T01:35:30;28.07;;;14.77;;
5696;SDS011;2873;50.966;7.210;2022-12-08T01:37:58;30.25;;;15.10;;
5696;SDS011;2873;50.966;7.210;2022-12-08T01:40:23;27.63;;;15.40;;
5696;SDS011;2873;50.966;7.210;2022-12-08T01:42:49;26.90;;;14.97;;
5696;SDS011;2873;50.966;7.210;2022-12-08T01:45:20;28.40;;;15.27;;
5696;SDS011;2873;50.966;7.210;2022-12-08T01:47:51;29.25;;;15.13;;
5696;SDS011;2873;50.966;7.210;2022-12-08T01:50:21;29.27;;;15.68;;
5696;SDS011;2873;50.966;7.210;2022-12-08T01:52:49;28.80;;;15.75;;
5696;SDS011;2873;50.966;7.210;2022-12-08T01:55:23;25.25;;;15.02;;
5696;SDS011;2873;50.966;7.210;2022-12-08T01:58:02;32.65;;;16.58;;
5696;SDS011;2873;50.966;7.210;2022-12-08T02:00:36;27.80;;;16.20;;
5696;SDS011;2873;50.966;7.210;2022-12-08T02:03:03;28.70;;;15.73;;
5696;SDS011;2873;50.966;7.210;2022-12-08T02:05:35;25.90;;;15.43;;
5696;SDS011;2873;50.966;7.210;2022-12-08T02:08:04;28.10;;;15.90;;
5696;SDS011;2873;50.966;7.210;2022-12-08T02:10:32;29.05;;;15.70;;
5696;SDS011;2873;50.966;7.210;2022-12-08T02:12:59;30.58;;;16.45;;
5696;SDS011;2873;50.966;7.210;2022-12-08T02:15:35;26.98;;;16.30;;
5696;SDS011;2873;50.966;7.210;2022-12-08T02:18:14;27.50;;;16.85;;
5696;SDS011;2873;50.966;7.210;2022-12-08T02:23:40;27.75;;;16.13;;
5696;SDS011;2873;50.966;7.210;2022-12-08T02:26:56;29.73;;;15.98;;
5696;SDS011;2873;50.966;7.210;2022-12-08T02:29:42;29.08;;;16.38;;
5696;SDS011;2873;50.966;7.210;2022-12-08T02:37:42;28.13;;;14.95;;
5696;SDS011;2873;50.966;7.210;2022-12-08T02:40:15;26.80;;;15.88;;
5696;SDS011;2873;50.966;7.210;2022-12-08T02:43:11;23.90;;;15.00;;
5696;SDS011;2873;50.966;7.210;2022-12-08T02:45:45;26.30;;;14.27;;
5696;SDS011;2873;50.966;7.210;2022-12-08T02:48:15;22.43;;;13.70;;
5696;SDS011;2873;50.966;7.210;2022-12-08T02:50:40;24.00;;;14.40;;
5696;SDS011;2873;50.966;7.210;2022-12-08T02:53:07;26.90;;;15.23;;
5696;SDS011;2873;50.966;7.210;2022-12-08T02:55:50;25.52;;;13.77;;
5696;SDS011;2873;50.966;7.210;2022-12-08T02:58:31;25.98;;;14.27;;
5696;SDS011;2873;50.966;7.210;2022-12-08T03:03:43;25.02;;;14.25;;
5696;SDS011;2873;50.966;7.210;2022-12-08T03:08:49;23.92;;;13.20;;
5696;SDS011;2873;50.966;7.210;2022-12-08T03:11:33;21.08;;;12.30;;
5696;SDS011;2873;50.966;7.210;2022-12-08T03:14:01;18.63;;;11.67;;
5696;SDS011;2873;50.966;7.210;2022-12-08T03:16:30;19.80;;;11.57;;
5696;SDS011;2873;50.966;7.210;2022-12-08T03:19:00;18.45;;;11.10;;
5696;SDS011;2873;50.966;7.210;2022-12-08T03:21:34;18.63;;;10.90;;
5696;SDS011;2873;50.966;7.210;2022-12-08T03:24:03;18.35;;;10.20;;
5696;SDS011;2873;50.966;7.210;2022-12-08T03:26:42;20.23;;;11.40;;
5696;SDS011;2873;50.966;7.210;2022-12-08T03:29:12;21.92;;;10.98;;
5696;SDS011;2873;50.966;7.210;2022-12-08T03:31:39;21.30;;;10.70;;
5696;SDS011;2873;50.966;7.210;2022-12-08T03:34:13;18.80;;;10.90;;
5696;SDS011;2873;50.966;7.210;2022-12-08T03:36:40;21.70;;;11.90;;
5696;SDS011;2873;50.966;7.210;2022-12-08T03:39:07;19.00;;;11.73;;
5696;SDS011;2873;50.966;7.210;2022-12-08T03:41:32;19.13;;;11.70;;
5696;SDS011;2873;50.966;7.210;2022-12-08T03:43:58;21.10;;;11.80;;
5696;SDS011;2873;50.966;7.210;2022-12-08T03:46:24;22.13;;;11.32;;
5696;SDS011;2873;50.966;7.210;2022-12-08T03:48:51;18.15;;;12.20;;
5696;SDS011;2873;50.966;7.210;2022-12-08T03:51:17;24.42;;;12.23;;
5696;SDS011;2873;50.966;7.210;2022-12-08T03:53:43;19.23;;;12.60;;
5696;SDS011;2873;50.966;7.210;2022-12-08T03:56:22;19.63;;;12.20;;
5696;SDS011;2873;50.966;7.210;2022-12-08T03:58:56;18.05;;;11.70;;
5696;SDS011;2873;50.966;7.210;2022-12-08T04:01:22;19.30;;;12.70;;
5696;SDS011;2873;50.966;7.210;2022-12-08T04:03:48;24.27;;;12.70;;
5696;SDS011;2873;50.966;7.210;2022-12-08T04:06:13;21.60;;;12.45;;
5696;SDS011;2873;50.966;7.210;2022-12-08T04:08:39;20.83;;;11.60;;
5696;SDS011;2873;50.966;7.210;2022-12-08T04:11:05;21.20;;;12.00;;
5696;SDS011;2873;50.966;7.210;2022-12-08T04:13:34;19.37;;;11.20;;
5696;SDS011;2873;50.966;7.210;2022-12-08T04:16:01;17.57;;;10.73;;
5696;SDS011;2873;50.966;7.210;2022-12-08T04:18:27;22.73;;;10.90;;
5696;SDS011;2873;50.966;7.210;2022-12-08T04:20:53;18.90;;;11.30;;
5696;SDS011;2873;50.966;7.210;2022-12-08T04:23:19;14.82;;;10.35;;
5696;SDS011;2873;50.966;7.210;2022-12-08T04:25:44;18.80;;;11.30;;
5696;SDS011;2873;50.966;7.210;2022-12-08T04:28:10;17.83;;;11.00;;
5696;SDS011;2873;50.966;7.210;2022-12-08T04:30:36;19.73;;;11.63;;
5696;SDS011;2873;50.966;7.210;2022-12-08T04:33:02;17.70;;;11.20;;
5696;SDS011;2873;50.966;7.210;2022-12-08T04:35:28;19.90;;;11.60;;
5696;SDS011;2873;50.966;7.210;2022-12-08T04:37:53;20.90;;;11.43;;
5696;SDS011;2873;50.966;7.210;2022-12-08T04:40:19;20.55;;;12.15;;
5696;SDS011;2873;50.966;7.210;2022-12-08T04:42:44;18.90;;;11.90;;
5696;SDS011;2873;50.966;7.210;2022-12-08T04:45:10;20.17;;;10.93;;
5696;SDS011;2873;50.966;7.210;2022-12-08T04:47:36;23.58;;;11.73;;
5696;SDS011;2873;50.966;7.210;2022-12-08T04:50:02;17.93;;;11.37;;
5696;SDS011;2873;50.966;7.210;2022-12-08T04:52:28;22.73;;;11.90;;
5696;SDS011;2873;50.966;7.210;2022-12-08T04:54:53;21.60;;;11.10;;
5696;SDS011;2873;50.966;7.210;2022-12-08T04:57:19;18.40;;;10.20;;
5696;SDS011;2873;50.966;7.210;2022-12-08T04:59:44;19.93;;;10.10;;
5696;SDS011;2873;50.966;7.210;2022-12-08T05:02:10;16.60;;;10.10;;
5696;SDS011;2873;50.966;7.210;2022-12-08T05:04:37;19.85;;;10.50;;
5696;SDS011;2873;50.966;7.210;2022-12-08T05:07:02;14.80;;;10.07;;
5696;SDS011;2873;50.966;7.210;2022-12-08T05:09:28;13.80;;;9.95;;
5696;SDS011;2873;50.966;7.210;2022-12-08T05:11:53;16.27;;;9.80;;
5696;SDS011;2873;50.966;7.210;2022-12-08T05:14:19;19.60;;;10.07;;
5696;SDS011;2873;50.966;7.210;2022-12-08T05:16:45;15.52;;;10.07;;
5696;SDS011;2873;50.966;7.210;2022-12-08T05:19:12;15.90;;;9.63;;
5696;SDS011;2873;50.966;7.210;2022-12-08T05:21:38;18.42;;;9.80;;
5696;SDS011;2873;50.966;7.210;2022-12-08T05:24:03;18.63;;;10.47;;
5696;SDS011;2873;50.966;7.210;2022-12-08T05:26:29;22.33;;;10.90;;
5696;SDS011;2873;50.966;7.210;2022-12-08T05:28:55;18.75;;;10.80;;
5696;SDS011;2873;50.966;7.210;2022-12-08T05:31:20;21.47;;;12.33;;
5696;SDS011;2873;50.966;7.210;2022-12-08T05:33:47;20.97;;;11.00;;
5696;SDS011;2873;50.966;7.210;2022-12-08T05:36:13;19.20;;;11.73;;
5696;SDS011;2873;50.966;7.210;2022-12-08T05:38:40;21.00;;;12.20;;
5696;SDS011;2873;50.966;7.210;2022-12-08T05:41:06;22.30;;;11.47;;
5696;SDS011;2873;50.966;7.210;2022-12-08T05:43:32;22.87;;;12.00;;
5696;SDS011;2873;50.966;7.210;2022-12-08T05:45:57;22.63;;;12.60;;
5696;SDS011;2873;50.966;7.210;2022-12-08T05:48:23;30.50;;;13.90;;
5696;SDS011;2873;50.966;7.210;2022-12-08T05:50:48;26.40;;;12.90;;
5696;SDS011;2873;50.966;7.210;2022-12-08T05:53:15;25.60;;;13.57;;
5696;SDS011;2873;50.966;7.210;2022-12-08T05:55:41;26.67;;;12.95;;
5696;SDS011;2873;50.966;7.210;2022-12-08T05:58:09;25.52;;;14.10;;
5696;SDS011;2873;50.966;7.210;2022-12-08T06:00:38;28.13;;;13.43;;
5696;SDS011;2873;50.966;7.210;2022-12-08T06:03:04;28.70;;;13.80;;
5696;SDS011;2873;50.966;7.210;2022-12-08T06:05:31;27.47;;;14.67;;
5696;SDS011;2873;50.966;7.210;2022-12-08T06:07:59;26.92;;;14.52;;
5696;SDS011;2873;50.966;7.210;2022-12-08T06:10:25;31.70;;;15.95;;
5696;SDS011;2873;50.966;7.210;2022-12-08T06:12:51;30.03;;;15.23;;
5696;SDS011;2873;50.966;7.210;2022-12-08T06:15:16;29.83;;;15.63;;
5696;SDS011;2873;50.966;7.210;2022-12-08T06:17:42;31.48;;;15.60;;
5696;SDS011;2873;50.966;7.210;2022-12-08T06:20:08;36.22;;;16.00;;
5696;SDS011;2873;50.966;7.210;2022-12-08T06:22:34;33.13;;;16.70;;
5696;SDS011;2873;50.966;7.210;2022-12-08T06:25:00;32.17;;;16.20;;
5696;SDS011;2873;50.966;7.210;2022-12-08T06:27:26;29.80;;;15.15;;
5696;SDS011;2873;50.966;7.210;2022-12-08T06:29:51;35.23;;;16.20;;
5696;SDS011;2873;50.966;7.210;2022-12-08T06:32:17;36.10;;;16.85;;
5696;SDS011;2873;50.966;7.210;2022-12-08T06:34:43;37.55;;;16.60;;
5696;SDS011;2873;50.966;7.210;2022-12-08T06:37:09;31.47;;;16.40;;
5696;SDS011;2873;50.966;7.210;2022-12-08T06:39:35;36.10;;;16.17;;
5696;SDS011;2873;50.966;7.210;2022-12-08T06:42:00;34.37;;;17.20;;
5696;SDS011;2873;50.966;7.210;2022-12-08T06:45:01;34.20;;;17.73;;
5696;SDS011;2873;50.966;7.210;2022-12-08T06:47:27;29.70;;;17.42;;
5696;SDS011;2873;50.966;7.210;2022-12-08T06:49:53;33.88;;;16.80;;
5696;SDS011;2873;50.966;7.210;2022-12-08T06:52:18;37.07;;;16.37;;
5696;SDS011;2873;50.966;7.210;2022-12-08T06:54:44;34.15;;;17.63;;
5696;SDS011;2873;50.966;7.210;2022-12-08T06:57:09;30.80;;;16.33;;
5696;SDS011;2873;50.966;7.210;2022-12-08T06:59:35;33.92;;;16.05;;
5696;SDS011;2873;50.966;7.210;2022-12-08T07:02:02;32.22;;;16.45;;
5696;SDS011;2873;50.966;7.210;2022-12-08T07:04:28;32.77;;;16.37;;
5696;SDS011;2873;50.966;7.210;2022-12-08T07:06:53;30.67;;;16.17;;
5696;SDS011;2873;50.966;7.210;2022-12-08T07:09:19;33.90;;;16.77;;
5696;SDS011;2873;50.966;7.210;2022-12-08T07:11:44;32.20;;;16.80;;
5696;SDS011;2873;50.966;7.210;2022-12-08T07:14:11;37.47;;;16.57;;
5696;SDS011;2873;50.966;7.210;2022-12-08T07:16:37;28.73;;;14.98;;
5696;SDS011;2873;50.966;7.210;2022-12-08T07:19:03;36.03;;;16.60;;
5696;SDS011;2873;50.966;7.210;2022-12-08T07:21:29;29.25;;;15.50;;
5696;SDS011;2873;50.966;7.210;2022-12-08T07:23:55;33.50;;;16.00;;
5696;SDS011;2873;50.966;7.210;2022-12-08T07:26:20;33.42;;;15.80;;
5696;SDS011;2873;50.966;7.210;2022-12-08T07:28:46;26.60;;;13.47;;
5696;SDS011;2873;50.966;7.210;2022-12-08T07:31:22;28.70;;;14.80;;
5696;SDS011;2873;50.966;7.210;2022-12-08T07:33:49;28.30;;;14.15;;
5696;SDS011;2873;50.966;7.210;2022-12-08T07:36:15;28.98;;;14.60;;
5696;SDS011;2873;50.966;7.210;2022-12-08T07:38:41;31.70;;;15.75;;
5696;SDS011;2873;50.966;7.210;2022-12-08T07:41:11;33.42;;;15.90;;
5696;SDS011;2873;50.966;7.210;2022-12-08T07:43:41;29.27;;;14.18;;
5696;SDS011;2873;50.966;7.210;2022-12-08T07:46:10;30.80;;;15.50;;
5696;SDS011;2873;50.966;7.210;2022-12-08T07:48:37;29.50;;;14.23;;
5696;SDS011;2873;50.966;7.210;2022-12-08T07:51:03;31.93;;;15.70;;
5696;SDS011;2873;50.966;7.210;2022-12-08T07:53:29;35.15;;;15.25;;
5696;SDS011;2873;50.966;7.210;2022-12-08T07:55:55;30.70;;;15.60;;
5696;SDS011;2873;50.966;7.210;2022-12-08T07:58:21;29.05;;;15.63;;
5696;SDS011;2873;50.966;7.210;2022-12-08T08:00:47;32.10;;;16.48;;
5696;SDS011;2873;50.966;7.210;2022-12-08T08:03:13;30.42;;;15.75;;
5696;SDS011;2873;50.966;7.210;2022-12-08T08:05:38;29.63;;;15.93;;
5696;SDS011;2873;50.966;7.210;2022-12-08T08:08:04;33.40;;;15.60;;
5696;SDS011;2873;50.966;7.210;2022-12-08T08:10:30;31.73;;;15.80;;
5696;SDS011;2873;50.966;7.210;2022-12-08T08:12:59;36.40;;;16.20;;
5696;SDS011;2873;50.966;7.210;2022-12-08T08:15:24;29.73;;;15.48;;
5696;SDS011;2873;50.966;7.210;2022-12-08T08:17:51;28.88;;;14.70;;
5696;SDS011;2873;50.966;7.210;2022-12-08T08:20:16;25.23;;;14.43;;
5696;SDS011;2873;50.966;7.210;2022-12-08T08:22:47;27.35;;;14.70;;
5696;SDS011;2873;50.966;7.210;2022-12-08T08:25:14;26.83;;;14.75;;
5696;SDS011;2873;50.966;7.210;2022-12-08T08:27:40;26.38;;;14.70;;
5696;SDS011;2873;50.966;7.210;2022-12-08T08:30:07;25.08;;;13.07;;
5696;SDS011;2873;50.966;7.210;2022-12-08T08:32:34;19.38;;;11.80;;
5696;SDS011;2873;50.966;7.210;2022-12-08T08:35:00;18.13;;;11.30;;
5696;SDS011;2873;50.966;7.210;2022-12-08T08:37:26;18.85;;;10.57;;
5696;SDS011;2873;50.966;7.210;2022-12-08T08:39:52;23.40;;;12.20;;
5696;SDS011;2873;50.966;7.210;2022-12-08T08:42:17;22.38;;;12.35;;
5696;SDS011;2873;50.966;7.210;2022-12-08T08:44:43;20.40;;;11.93;;
5696;SDS011;2873;50.966;7.210;2022-12-08T08:47:09;22.38;;;11.77;;
5696;SDS011;2873;50.966;7.210;2022-12-08T08:49:34;21.73;;;12.10;;
5696;SDS011;2873;50.966;7.210;2022-12-08T08:52:00;23.88;;;13.43;;
5696;SDS011;2873;50.966;7.210;2022-12-08T08:54:27;28.97;;;14.37;;
5696;SDS011;2873;50.966;7.210;2022-12-08T08:56:52;24.38;;;13.77;;
5696;SDS011;2873;50.966;7.210;2022-12-08T08:59:18;27.23;;;14.50;;
5696;SDS011;2873;50.966;7.210;2022-12-08T09:01:44;25.53;;;14.77;;
5696;SDS011;2873;50.966;7.210;2022-12-08T09:04:09;27.83;;;14.43;;
5696;SDS011;2873;50.966;7.210;2022-12-08T09:06:35;26.40;;;14.40;;
5696;SDS011;2873;50.966;7.210;2022-12-08T09:09:00;25.87;;;14.20;;
5696;SDS011;2873;50.966;7.210;2022-12-08T09:11:26;26.40;;;15.00;;
5696;SDS011;2873;50.966;7.210;2022-12-08T09:13:52;29.23;;;15.80;;
5696;SDS011;2873;50.966;7.210;2022-12-08T09:16:18;27.45;;;14.93;;
5696;SDS011;2873;50.966;7.210;2022-12-08T09:18:44;30.83;;;15.10;;
5696;SDS011;2873;50.966;7.210;2022-12-08T09:21:12;29.13;;;14.80;;
5696;SDS011;2873;50.966;7.210;2022-12-08T09:23:41;25.27;;;14.38;;
5696;SDS011;2873;50.966;7.210;2022-12-08T09:26:07;27.50;;;14.57;;
5696;SDS011;2873;50.966;7.210;2022-12-08T09:28:32;27.33;;;13.80;;
5696;SDS011;2873;50.966;7.210;2022-12-08T09:30:58;33.88;;;14.88;;
5696;SDS011;2873;50.966;7.210;2022-12-08T09:33:24;28.95;;;13.57;;
5696;SDS011;2873;50.966;7.210;2022-12-08T09:35:50;29.13;;;13.40;;
5696;SDS011;2873;50.966;7.210;2022-12-08T09:38:15;26.33;;;13.53;;
5696;SDS011;2873;50.966;7.210;2022-12-08T09:40:45;22.75;;;11.80;;
5696;SDS011;2873;50.966;7.210;2022-12-08T09:43:21;26.10;;;13.52;;
5696;SDS011;2873;50.966;7.210;2022-12-08T09:46:08;25.85;;;13.25;;
5696;SDS011;2873;50.966;7.210;2022-12-08T09:48:39;25.98;;;12.52;;
5696;SDS011;2873;50.966;7.210;2022-12-08T09:51:08;19.85;;;11.77;;
5696;SDS011;2873;50.966;7.210;2022-12-08T09:56:15;21.83;;;11.55;;
5696;SDS011;2873;50.966;7.210;2022-12-08T10:01:15;19.58;;;10.93;;
5696;SDS011;2873;50.966;7.210;2022-12-08T10:03:41;23.90;;;12.30;;
5696;SDS011;2873;50.966;7.210;2022-12-08T10:09:11;20.90;;;11.93;;
5696;SDS011;2873;50.966;7.210;2022-12-08T10:11:55;22.15;;;11.43;;
5696;SDS011;2873;50.966;7.210;2022-12-08T10:17:31;23.23;;;11.98;;
5696;SDS011;2873;50.966;7.210;2022-12-08T10:20:09;21.35;;;11.50;;
5696;SDS011;2873;50.966;7.210;2022-12-08T10:22:40;22.10;;;11.90;;
5696;SDS011;2873;50.966;7.210;2022-12-08T10:25:10;22.08;;;11.00;;
5696;SDS011;2873;50.966;7.210;2022-12-08T10:27:43;20.33;;;11.70;;
5696;SDS011;2873;50.966;7.210;2022-12-08T10:30:13;18.77;;;10.82;;
5696;SDS011;2873;50.966;7.210;2022-12-08T10:32:41;17.83;;;10.10;;
5696;SDS011;2873;50.966;7.210;2022-12-08T10:35:10;19.97;;;10.20;;
5696;SDS011;2873;50.966;7.210;2022-12-08T10:37:38;16.98;;;10.05;;
5696;SDS011;2873;50.966;7.210;2022-12-08T10:42:38;16.77;;;10.50;;
5696;SDS011;2873;50.966;7.210;2022-12-08T10:47:39;15.23;;;9.30;;
5696;SDS011;2873;50.966;7.210;2022-12-08T10:50:19;15.50;;;9.02;;
5696;SDS011;2873;50.966;7.210;2022-12-08T10:52:56;15.98;;;9.00;;
5696;SDS011;2873;50.966;7.210;2022-12-08T10:55:26;15.68;;;8.40;;
5696;SDS011;2873;50.966;7.210;2022-12-08T10:57:53;11.43;;;7.35;;
5696;SDS011;2873;50.966;7.210;2022-12-08T11:00:20;10.80;;;7.40;;
5696;SDS011;2873;50.966;7.210;2022-12-08T11:02:59;11.15;;;7.13;;
5696;SDS011;2873;50.966;7.210;2022-12-08T11:05:28;10.25;;;7.20;;
5696;SDS011;2873;50.966;7.210;2022-12-08T11:07:58;13.07;;;6.88;;
5696;SDS011;2873;50.966;7.210;2022-12-08T11:10:29;15.05;;;7.20;;
5696;SDS011;2873;50.966;7.210;2022-12-08T11:13:10;9.07;;;6.95;;
5696;SDS011;2873;50.966;7.210;2022-12-08T11:15:43;10.32;;;7.38;;
5696;SDS011;2873;50.966;7.210;2022-12-08T11:18:21;13.35;;;7.32;;
5696;SDS011;2873;50.966;7.210;2022-12-08T11:21:12;10.60;;;7.65;;
5696;SDS011;2873;50.966;7.210;2022-12-08T11:23:40;11.80;;;7.82;;
5696;SDS011;2873;50.966;7.210;2022-12-08T11:26:12;11.63;;;7.75;;
5696;SDS011;2873;50.966;7.210;2022-12-08T11:28:47;15.18;;;7.82;;
5696;SDS011;2873;50.966;7.210;2022-12-08T11:31:28;17.30;;;8.55;;
5696;SDS011;2873;50.966;7.210;2022-12-08T11:33:57;17.52;;;8.32;;
5696;SDS011;2873;50.966;7.210;2022-12-08T11:36:24;16.20;;;8.80;;
5696;SDS011;2873;50.966;7.210;2022-12-08T11:38:54;15.30;;;8.33;;
5696;SDS011;2873;50.966;7.210;2022-12-08T11:41:23;12.88;;;8.23;;
5696;SDS011;2873;50.966;7.210;2022-12-08T11:44:57;13.25;;;8.80;;
5696;SDS011;2873;50.966;7.210;2022-12-08T11:47:07;15.35;;;8.23;;
5696;SDS011;2873;50.966;7.210;2022-12-08T11:49:44;12.18;;;8.35;;
5696;SDS011;2873;50.966;7.210;2022-12-08T11:52:19;12.73;;;7.93;;
5696;SDS011;2873;50.966;7.210;2022-12-08T11:54:49;14.77;;;7.75;;
5696;SDS011;2873;50.966;7.210;2022-12-08T11:57:25;12.70;;;7.45;;
5696;SDS011;2873;50.966;7.210;2022-12-08T11:59:53;8.07;;;6.00;;
5696;SDS011;2873;50.966;7.210;2022-12-08T12:02:28;8.65;;;6.22;;
5696;SDS011;2873;50.966;7.210;2022-12-08T12:08:38;9.52;;;5.60;;
5696;SDS011;2873;50.966;7.210;2022-12-08T12:14:22;9.20;;;6.22;;
5696;SDS011;2873;50.966;7.210;2022-12-08T12:17:05;10.77;;;6.70;;
5696;SDS011;2873;50.966;7.210;2022-12-08T12:19:54;10.77;;;6.10;;
5696;SDS011;2873;50.966;7.210;2022-12-08T12:22:23;9.45;;;5.75;;
5696;SDS011;2873;50.966;7.210;2022-12-08T12:24:53;8.70;;;5.82;;
5696;SDS011;2873;50.966;7.210;2022-12-08T12:27:24;7.20;;;5.33;;
5696;SDS011;2873;50.966;7.210;2022-12-08T12:29:57;8.60;;;5.38;;
5696;SDS011;2873;50.966;7.210;2022-12-08T12:32:26;6.47;;;4.60;;
5696;SDS011;2873;50.966;7.210;2022-12-08T12:35:14;6.20;;;4.50;;
5696;SDS011;2873;50.966;7.210;2022-12-08T12:37:45;7.35;;;4.30;;
5696;SDS011;2873;50.966;7.210;2022-12-08T12:40:19;4.45;;;4.00;;
5696;SDS011;2873;50.966;7.210;2022-12-08T12:53:02;7.47;;;4.43;;
5696;SDS011;2873;50.966;7.210;2022-12-08T12:55:49;6.05;;;3.92;;
5696;SDS011;2873;50.966;7.210;2022-12-08T13:03:40;9.73;;;3.70;;
5696;SDS011;2873;50.966;7.210;2022-12-08T13:06:08;5.73;;;3.43;;
5696;SDS011;2873;50.966;7.210;2022-12-08T13:08:37;7.80;;;5.60;;
5696;SDS011;2873;50.966;7.210;2022-12-08T13:11:06;13.10;;;6.82;;
5696;SDS011;2873;50.966;7.210;2022-12-08T13:13:37;14.20;;;7.80;;
5696;SDS011;2873;50.966;7.210;2022-12-08T13:16:19;13.32;;;7.70;;
5696;SDS011;2873;50.966;7.210;2022-12-08T13:18:48;12.07;;;7.00;;
5696;SDS011;2873;50.966;7.210;2022-12-08T13:21:20;13.05;;;7.47;;
5696;SDS011;2873;50.966;7.210;2022-12-08T13:23:48;11.40;;;7.32;;
5696;SDS011;2873;50.966;7.210;2022-12-08T13:26:32;15.05;;;7.70;;
5696;SDS011;2873;50.966;7.210;2022-12-08T13:29:19;16.30;;;8.05;;
5696;SDS011;2873;50.966;7.210;2022-12-08T13:37:24;14.60;;;8.15;;
5696;SDS011;2873;50.966;7.210;2022-12-08T13:39:59;14.83;;;8.40;;
5696;SDS011;2873;50.966;7.210;2022-12-08T13:45:13;14.93;;;8.43;;
5696;SDS011;2873;50.966;7.210;2022-12-08T13:47:55;12.95;;;7.63;;
5696;SDS011;2873;50.966;7.210;2022-12-08T13:50:28;15.97;;;7.70;;
5696;SDS011;2873;50.966;7.210;2022-12-08T13:52:59;16.63;;;8.27;;
5696;SDS011;2873;50.966;7.210;2022-12-08T13:55:33;15.40;;;8.00;;
5696;SDS011;2873;50.966;7.210;2022-12-08T13:58:04;15.27;;;8.07;;
5696;SDS011;2873;50.966;7.210;2022-12-08T14:00:30;11.25;;;7.60;;
5696;SDS011;2873;50.966;7.210;2022-12-08T14:02:59;16.45;;;8.45;;
5696;SDS011;2873;50.966;7.210;2022-12-08T14:05:26;13.40;;;8.48;;
5696;SDS011;2873;50.966;7.210;2022-12-08T14:08:02;12.65;;;7.75;;
5696;SDS011;2873;50.966;7.210;2022-12-08T14:10:31;15.02;;;7.97;;
5696;SDS011;2873;50.966;7.210;2022-12-08T14:13:01;14.48;;;7.95;;
5696;SDS011;2873;50.966;7.210;2022-12-08T14:15:31;13.68;;;7.60;;
5696;SDS011;2873;50.966;7.210;2022-12-08T14:17:57;12.30;;;7.75;;
5696;SDS011;2873;50.966;7.210;2022-12-08T14:20:24;13.25;;;7.47;;
5696;SDS011;2873;50.966;7.210;2022-12-08T14:22:51;11.85;;;7.85;;
5696;SDS011;2873;50.966;7.210;2022-12-08T14:25:18;12.05;;;6.88;;
5696;SDS011;2873;50.966;7.210;2022-12-08T14:27:44;15.02;;;7.32;;
5696;SDS011;2873;50.966;7.210;2022-12-08T14:32:59;12.90;;;6.32;;
5696;SDS011;2873;50.966;7.210;2022-12-08T14:35:27;12.73;;;7.07;;
5696;SDS011;2873;50.966;7.210;2022-12-08T14:37:58;13.43;;;6.40;;
5696;SDS011;2873;50.966;7.210;2022-12-08T14:40:35;12.88;;;6.28;;
5696;SDS011;2873;50.966;7.210;2022-12-08T14:50:57;11.80;;;6.38;;
5696;SDS011;2873;50.966;7.210;2022-12-08T14:56:17;11.10;;;5.60;;
5696;SDS011;2873;50.966;7.210;2022-12-08T15:01:33;14.25;;;5.90;;
5696;SDS011;2873;50.966;7.210;2022-12-08T15:04:01;7.50;;;5.30;;
5696;SDS011;2873;50.966;7.210;2022-12-08T15:06:32;9.90;;;5.50;;
5696;SDS011;2873;50.966;7.210;2022-12-08T15:08:58;13.77;;;5.97;;
5696;SDS011;2873;50.966;7.210;2022-12-08T15:11:37;10.77;;;5.95;;
5696;SDS011;2873;50.966;7.210;2022-12-08T15:14:03;9.20;;;5.35;;
5696;SDS011;2873;50.966;7.210;2022-12-08T15:16:48;12.02;;;5.90;;
5696;SDS011;2873;50.966;7.210;2022-12-08T15:19:16;7.53;;;5.40;;
5696;SDS011;2873;50.966;7.210;2022-12-08T15:21:52;10.13;;;5.95;;
5696;SDS011;2873;50.966;7.210;2022-12-08T15:24:21;10.63;;;5.50;;
5696;SDS011;2873;50.966;7.210;2022-12-08T15:26:49;11.82;;;5.63;;
5696;SDS011;2873;50.966;7.210;2022-12-08T15:29:22;10.63;;;5.70;;
5696;SDS011;2873;50.966;7.210;2022-12-08T15:31:54;9.55;;;5.30;;
5696;SDS011;2873;50.966;7.210;2022-12-08T15:34:21;12.95;;;5.70;;
5696;SDS011;2873;50.966;7.210;2022-12-08T15:36:48;11.75;;;5.50;;
5696;SDS011;2873;50.966;7.210;2022-12-08T15:39:20;12.52;;;5.28;;
5696;SDS011;2873;50.966;7.210;2022-12-08T15:41:55;9.13;;;4.60;;
5696;SDS011;2873;50.966;7.210;2022-12-08T15:44:21;6.70;;;4.70;;
5696;SDS011;2873;50.966;7.210;2022-12-08T15:46:47;5.20;;;4.30;;
5696;SDS011;2873;50.966;7.210;2022-12-08T15:49:17;8.88;;;4.40;;
5696;SDS011;2873;50.966;7.210;2022-12-08T15:51:44;8.48;;;5.10;;
5696;SDS011;2873;50.966;7.210;2022-12-08T15:54:10;12.83;;;5.30;;
5696;SDS011;2873;50.966;7.210;2022-12-08T15:56:39;9.00;;;5.07;;
5696;SDS011;2873;50.966;7.210;2022-12-08T15:59:23;8.80;;;4.40;;
5696;SDS011;2873;50.966;7.210;2022-12-08T16:01:49;11.52;;;4.70;;
5696;SDS011;2873;50.966;7.210;2022-12-08T16:04:16;12.95;;;6.10;;
5696;SDS011;2873;50.966;7.210;2022-12-08T16:06:45;11.40;;;5.95;;
5696;SDS011;2873;50.966;7.210;2022-12-08T16:09:16;11.43;;;6.30;;
5696;SDS011;2873;50.966;7.210;2022-12-08T16:11:48;7.18;;;4.95;;
5696;SDS011;2873;50.966;7.210;2022-12-08T16:14:33;9.07;;;5.30;;
5696;SDS011;2873;50.966;7.210;2022-12-08T16:16:58;8.38;;;5.05;;
5696;SDS011;2873;50.966;7.210;2022-12-08T16:19:24;8.43;;;5.30;;
5696;SDS011;2873;50.966;7.210;2022-12-08T16:21:50;8.40;;;4.90;;
5696;SDS011;2873;50.966;7.210;2022-12-08T16:24:15;8.27;;;5.10;;
5696;SDS011;2873;50.966;7.210;2022-12-08T16:26:41;6.43;;;5.20;;